Terminal Aerodrome Forecast
Issued by NWS

Home | Current Version | Previous Version | Text Only | Print | Product List | Glossary On
Versions: 1 2 3 4 5 6 7 8 9 10 11 12 13 14 15
000
FTUS45 KRIW 162326
TAFCOD
TAF
KCOD 162326Z 1700/1724 34010KT 5SM -SN SCT006 OVC015
     FM170200 31007KT P6SM BKN025
     FM170600 23008KT P6SM FEW080
     FM171700 24008KT P6SM FEW100
      AMD LTD TO CLD VIS AND WIND=

USA.gov is the U.S. government's official web portal to all federal, state and local government web resources and services.